Time;durP1;ratioP1;P1;durP2;ratioP2;P2;SDS_P1;SDS_P2;PMS_P1;PMS_P2;Temp;Humidity;BMP_temperature;BMP_pressure;BME280_temperature;BME280_humidity;BME280_pressure;Samples;Min_cycle;Max_cycle;Signal;HPM_P1;HPM_P2
2022/03/02 00:00:29;;;;;;;;;;;3.90;67.60;;;3.53;54.93;101458.38;5069772;28;19924;-77
2022/03/02 00:02:56;;;;;;;;;;;5.70;68.60;;;3.56;55.43;101461.03;5038281;28;19924;-79
2022/03/02 00:05:24;;;;;;;;;;;5.50;68.80;;;3.52;55.34;101462.69;5078117;28;19932;-79
2022/03/02 00:07:51;;;;;;;;;;;3.80;68.10;;;3.49;55.82;101447.00;5073688;28;20047;-77
2022/03/02 00:10:18;;;;;;;;;;;5.30;69.00;;;3.55;56.04;101446.28;5072006;28;19931;-78
2022/03/02 00:12:45;;;;;;;;;;;3.90;68.50;;;3.56;56.27;101437.63;5072147;28;19924;-77
2022/03/02 00:15:12;;;;;;;;;;;3.90;68.60;;;3.57;56.18;101439.38;5054524;28;19934;-77
2022/03/02 00:17:39;;;;;;;;;;;3.80;68.60;;;3.58;56.44;101438.53;5071350;28;19928;-77
2022/03/02 00:20:06;;;;;;;;;;;3.80;68.80;;;3.59;55.77;101440.28;5071777;28;19951;-77
2022/03/02 00:22:33;;;;;;;;;;;4.10;68.60;;;3.53;55.67;101438.41;5070781;28;20467;-77
2022/03/02 00:25:00;;;;;;;;;;;3.70;68.50;;;3.48;57.12;101436.56;5071111;28;20327;-77
2022/03/02 00:27:27;;;;;;;;;;;5.50;70.20;;;3.51;55.99;101442.72;5071216;28;19935;-77
2022/03/02 00:29:54;;;;;;;;;;;3.80;68.90;;;3.43;57.10;101445.97;5038213;28;20389;-78
2022/03/02 00:32:21;;;;;;;;;;;3.80;69.30;;;3.39;57.07;101445.03;5053888;28;19972;-77
2022/03/02 00:34:48;;;;;;;;;;;3.80;69.30;;;3.43;56.17;101438.19;5053384;28;19928;-77
2022/03/02 00:37:15;;;;;;;;;;;3.80;69.00;;;3.36;56.24;101437.16;5070623;28;19924;-77
2022/03/02 00:39:44;;;;;;;;;;;3.70;68.80;;;3.31;57.51;101437.03;5070736;28;19930;-77
2022/03/02 00:42:11;;;;;;;;;;;4.40;70.00;;;3.29;58.19;101430.06;5037974;28;19925;-77
2022/03/02 00:44:38;;;;;;;;;;;3.60;70.00;;;3.15;57.77;101434.94;5052914;28;19931;-77
2022/03/02 00:47:06;;;;;;;;;;;3.70;70.30;;;3.07;57.91;101419.16;5070972;28;20381;-78
2022/03/02 00:49:34;;;;;;;;;;;3.60;69.70;;;3.03;59.53;101417.31;5070538;28;20390;-77
2022/03/02 00:52:02;;;;;;;;;;;3.40;71.30;;;3.04;59.79;101414.75;5037383;28;19924;-77
2022/03/02 00:54:30;;;;;;;;;;;3.50;72.20;;;2.89;62.92;101417.84;5032752;28;19924;-77
2022/03/02 00:56:57;;;;;;;;;;;3.50;73.90;;;2.83;67.07;101415.97;5050770;28;19935;-77
2022/03/02 00:59:25;;;;;;;;;;;3.30;76.20;;;2.73;68.01;101419.19;5053370;28;19991;-77
2022/03/02 01:01:52;;;;;;;;;;;3.30;77.40;;;2.63;69.06;101414.63;5058327;28;19928;-77
2022/03/02 01:04:19;;;;;;;;;;;3.20;78.70;;;2.46;69.20;101404.66;5058929;28;19929;-78
2022/03/02 01:06:46;;;;;;;;;;;4.90;80.00;;;2.46;71.68;101408.97;5063248;28;19931;-77
2022/03/02 01:09:13;;;;;;;;;;;2.90;80.00;;;2.44;70.79;101401.16;5049180;28;20004;-77
2022/03/02 01:11:40;;;;;;;;;;;2.90;80.60;;;2.31;74.64;101397.34;5080035;28;20346;-77
2022/03/02 01:14:08;;;;;;;;;;;4.70;83.80;;;2.25;74.78;101398.03;5070330;28;20331;-77
2022/03/02 01:16:35;;;;;;;;;;;3.90;83.90;;;2.20;77.13;101389.25;5070065;28;19932;-78
2022/03/02 01:19:03;;;;;;;;;;;4.70;85.10;;;2.22;76.10;101384.13;5069901;28;19967;-77
2022/03/02 01:21:30;;;;;;;;;;;2.70;84.50;;;2.18;75.29;101385.75;5072452;28;19990;-78
2022/03/02 01:23:59;;;;;;;;;;;3.70;85.10;;;2.23;75.27;101378.94;5069131;28;19936;-78
2022/03/02 01:26:26;;;;;;;;;;;2.90;84.80;;;2.17;75.19;101380.50;5069708;28;19981;-77
2022/03/02 01:28:56;;;;;;;;;;;2.60;84.80;;;2.19;72.19;101378.84;5069270;28;19932;-77
2022/03/02 01:31:24;;;;;;;;;;;4.70;85.70;;;2.13;71.75;101388.22;5069465;28;19931;-77
2022/03/02 01:33:52;;;;;;;;;;;2.70;83.90;;;1.96;72.57;101384.28;5068890;28;19956;-78
2022/03/02 01:36:20;;;;;;;;;;;2.50;83.80;;;1.98;70.67;101380.00;5069751;28;20026;-78
2022/03/02 01:38:47;;;;;;;;;;;2.30;83.30;;;1.91;71.09;101378.09;5053739;28;19929;-78
2022/03/02 01:41:19;;;;;;;;;;;2.50;83.20;;;1.66;71.81;101380.88;5072807;28;20548;-79
2022/03/02 01:43:47;;;;;;;;;;;2.50;83.30;;;1.61;72.39;101378.97;5055007;28;19928;-78
2022/03/02 01:46:16;;;;;;;;;;;2.20;83.10;;;1.63;73.06;101377.31;5071810;28;20428;-79
2022/03/02 01:48:43;;;;;;;;;;;3.10;84.40;;;1.57;74.51;101374.53;5056699;28;20452;-79
2022/03/02 01:51:10;;;;;;;;;;;2.30;85.30;;;1.59;75.42;101372.88;5040196;28;19924;-78
2022/03/02 01:53:38;;;;;;;;;;;2.10;85.40;;;1.49;76.48;101367.41;5054515;28;19935;-79
2022/03/02 01:56:06;;;;;;;;;;;2.10;86.50;;;1.39;77.83;101363.66;5070135;28;19925;-78
2022/03/02 01:58:33;;;;;;;;;;;2.00;86.90;;;1.40;76.98;101364.50;5069046;28;19928;-77
2022/03/02 02:01:01;;;;;;;;;;;3.00;87.70;;;1.44;76.82;101366.38;5052891;28;19924;-77
2022/03/02 02:03:28;;;;;;;;;;;2.00;87.30;;;1.39;78.96;101366.25;5068169;28;19955;-77
2022/03/02 02:05:55;;;;;;;;;;;2.00;88.30;;;1.39;78.61;101360.16;5069097;28;19928;-77
2022/03/02 02:08:23;;;;;;;;;;;1.90;88.70;;;1.21;80.56;101363.09;5036073;28;20305;-78
2022/03/02 02:10:50;;;;;;;;;;;-0.20;87.70;;;1.30;82.36;101363.38;5052297;28;20316;-77
2022/03/02 02:13:17;;;;;;;;;;;2.10;90.00;;;1.37;82.42;101365.31;5068364;28;19935;-77
2022/03/02 02:15:44;;;;;;;;;;;1.80;90.10;;;1.34;84.65;101364.34;5052442;28;19928;-78
2022/03/02 02:18:12;;;;;;;;;;;1.80;90.90;;;1.28;82.22;101357.25;5052698;28;19975;-77
2022/03/02 02:20:39;;;;;;;;;;;4.50;91.00;;;1.17;81.62;101356.03;5069150;28;19928;-77
2022/03/02 02:23:07;;;;;;;;;;;1.80;90.30;;;1.10;85.13;101349.81;5068383;28;19928;-77
2022/03/02 02:25:34;;;;;;;;;;;1.70;90.50;;;0.98;85.19;101352.88;5068502;28;20347;-78
2022/03/02 02:28:02;;;;;;;;;;;1.70;90.90;;;0.90;86.89;101350.06;5054065;28;19928;-79
2022/03/02 02:30:30;;;;;;;;;;;1.80;91.30;;;0.86;87.54;101355.97;5070922;28;20464;-79
2022/03/02 02:32:57;;;;;;;;;;;1.60;91.40;;;0.91;91.21;101345.78;5036965;28;19928;-79
2022/03/02 02:35:27;;;;;;;;;;;1.50;91.90;;;0.87;92.45;101344.78;5037914;28;19932;-78
2022/03/02 02:37:57;;;;;;;;;;;1.40;92.10;;;0.84;93.31;101336.91;5054041;28;19933;-78
2022/03/02 02:40:25;;;;;;;;;;;1.50;92.40;;;0.78;96.92;101355.75;5070771;28;19929;-78
2022/03/02 02:42:52;;;;;;;;;;;1.40;93.00;;;0.68;96.72;101344.19;5071551;28;19928;-79
2022/03/02 02:45:22;;;;;;;;;;;1.30;93.10;;;0.73;97.42;101341.75;5038122;28;19931;-79
2022/03/02 02:47:54;;;;;;;;;;;1.30;93.60;;;0.69;96.90;101338.19;5055181;28;19924;-79
2022/03/02 02:50:27;;;;;;;;;;;1.30;93.40;;;0.57;95.54;101335.19;5038173;28;19928;-78
2022/03/02 02:52:56;;;;;;;;;;;1.30;93.10;;;0.50;95.58;101328.94;5031499;28;19935;-77
2022/03/02 02:55:27;;;;;;;;;;;1.30;93.20;;;0.42;94.98;101322.63;5064558;28;20422;-77
2022/03/02 02:57:55;;;;;;;;;;;1.00;93.20;;;0.44;95.28;101326.16;5064983;28;19990;-77
2022/03/02 03:00:27;;;;;;;;;;;1.00;93.20;;;0.37;94.42;101324.16;5064779;28;19978;-77
2022/03/02 03:02:55;;;;;;;;;;;2.50;93.60;;;0.40;94.02;101319.97;5064945;28;20568;-77
2022/03/02 03:05:25;;;;;;;;;;;1.10;93.30;;;0.37;94.30;101313.81;5064802;28;20418;-77
2022/03/02 03:07:53;;;;;;;;;;;0.90;93.50;;;0.33;90.20;101320.63;5065189;28;19959;-78
2022/03/02 03:10:21;;;;;;;;;;;0.90;93.00;;;0.02;89.57;101311.81;5064969;28;20328;-78
2022/03/02 03:12:48;;;;;;;;;;;1.00;92.50;;;-0.07;90.91;101309.78;5064899;28;19936;-78
2022/03/02 03:15:17;;;;;;;;;;;0.90;92.80;;;-0.18;90.96;101319.75;5065603;28;19975;-78
2022/03/02 03:17:46;;;;;;;;;;;0.80;92.50;;;-0.21;94.21;101314.47;5033248;28;19928;-79
2022/03/02 03:20:15;;;;;;;;;;;0.50;93.30;;;-0.33;94.92;101322.69;5032941;28;20494;-77
2022/03/02 03:22:42;;;;;;;;;;;0.70;93.60;;;-0.32;91.89;101320.94;5072426;28;19929;-78
2022/03/02 03:25:09;;;;;;;;;;;3.20;93.80;;;-0.40;94.20;101319.81;5072368;28;19925;-78
2022/03/02 03:27:37;;;;;;;;;;;0.70;93.70;;;-0.53;94.06;101321.09;5058220;28;19925;-78
2022/03/02 03:30:05;;;;;;;;;;;0.50;93.50;;;-0.52;100.00;101322.84;5072514;28;19940;-79
2022/03/02 03:32:32;;;;;;;;;;;0.40;94.50;;;-0.64;100.00;101324.13;5072472;28;20023;-78
2022/03/02 03:34:59;;;;;;;;;;;0.60;94.70;;;-0.75;100.00;101323.75;5067906;28;19925;-77
2022/03/02 03:37:27;;;;;;;;;;;0.30;95.00;;;-0.92;100.00;101319.63;5064380;28;19936;-77
2022/03/02 03:39:54;;;;;;;;;;;0.30;95.60;;;-0.97;100.00;101323.72;5066576;28;19940;-77
2022/03/02 03:42:23;;;;;;;;;;;0.00;94.60;;;-0.95;100.00;101317.81;5067273;28;19924;-77
2022/03/02 03:44:50;;;;;;;;;;;0.20;95.80;;;-0.93;100.00;101325.63;5054961;28;19933;-78
2022/03/02 03:47:18;;;;;;;;;;;-0.10;96.70;;;-0.97;100.00;101324.63;5070161;28;20417;-78
2022/03/02 03:49:45;;;;;;;;;;;0.00;97.10;;;-0.83;100.00;101326.84;5052175;28;19928;-78
2022/03/02 03:52:12;;;;;;;;;;;0.00;96.40;;;-0.87;100.00;101331.88;5069106;28;19928;-77
2022/03/02 03:54:39;;;;;;;;;;;0.00;97.00;;;-0.83;100.00;101325.13;5069403;28;19936;-78
2022/03/02 03:57:06;;;;;;;;;;;-0.10;97.10;;;-0.91;100.00;101329.16;5051910;28;19928;-78
2022/03/02 03:59:33;;;;;;;;;;;2.20;97.40;;;-0.76;100.00;101324.56;5068911;28;19925;-77
2022/03/02 04:02:00;;;;;;;;;;;-0.10;96.70;;;-0.80;100.00;101326.97;5079153;28;19925;-78
2022/03/02 04:04:27;;;;;;;;;;;-0.10;97.00;;;-0.84;100.00;101325.97;5044956;28;19956;-78
2022/03/02 04:06:54;;;;;;;;;;;0.10;97.10;;;-0.94;100.00;101321.25;5052123;28;19940;-78
2022/03/02 04:09:21;;;;;;;;;;;0.10;96.60;;;-1.06;100.00;101311.34;5052108;28;19935;-78
2022/03/02 04:11:48;;;;;;;;;;;0.00;96.30;;;-1.12;100.00;101308.53;5052336;28;20409;-77
2022/03/02 04:14:15;;;;;;;;;;;2.80;97.10;;;-1.07;100.00;101304.41;5050883;28;19944;-77
2022/03/02 04:16:42;;;;;;;;;;;-0.20;96.60;;;-1.09;100.00;101299.19;5052029;28;19936;-77
2022/03/02 04:19:09;;;;;;;;;;;-0.30;96.40;;;-1.09;100.00;101298.31;5052441;28;19940;-79
2022/03/02 04:21:36;;;;;;;;;;;-0.20;96.60;;;-1.16;100.00;101290.34;5064154;28;20304;-80
2022/03/02 04:24:03;;;;;;;;;;;0.20;96.60;;;-1.20;100.00;101284.97;5039222;28;20267;-78
2022/03/02 04:26:30;;;;;;;;;;;-0.30;96.90;;;-1.15;100.00;101286.94;5070743;28;19929;-75
2022/03/02 04:28:57;;;;;;;;;;;-0.40;96.60;;;-0.97;100.00;101282.38;5070239;28;19971;-75
2022/03/02 04:31:23;;;;;;;;;;;0.50;97.50;;;-0.94;100.00;101270.47;5071550;28;19986;-78
2022/03/02 04:33:50;;;;;;;;;;;-0.30;97.30;;;-1.06;100.00;101272.59;5072896;28;19928;-79
2022/03/02 04:36:18;;;;;;;;;;;2.50;97.80;;;-1.09;100.00;101273.38;5073145;28;19928;-78
2022/03/02 04:38:44;;;;;;;;;;;0.60;97.10;;;-1.04;100.00;101266.66;5073757;28;19931;-78
2022/03/02 04:41:11;;;;;;;;;;;1.90;97.20;;;-1.20;100.00;101266.91;5055972;28;20455;-78
2022/03/02 04:43:38;;;;;;;;;;;-0.20;96.90;;;-1.20;100.00;101269.47;5071435;28;19924;-78
2022/03/02 04:46:05;;;;;;;;;;;-0.20;97.20;;;-1.23;100.00;101259.91;5055432;28;19928;-78
2022/03/02 04:48:32;;;;;;;;;;;-0.30;97.00;;;-1.08;100.00;101253.56;5038094;28;20037;-77
2022/03/02 04:50:59;;;;;;;;;;;-0.30;97.10;;;-0.98;100.00;101247.94;5072119;28;20389;-77
2022/03/02 04:53:26;;;;;;;;;;;-0.40;96.90;;;-0.87;100.00;101253.50;5053151;28;19928;-77
2022/03/02 04:55:53;;;;;;;;;;;0.90;96.90;;;-0.78;100.00;101253.84;5072940;28;19962;-79
2022/03/02 04:58:20;;;;;;;;;;;-0.20;96.70;;;-0.70;100.00;101246.38;5055623;28;19932;-77
2022/03/02 05:00:47;;;;;;;;;;;-0.20;96.90;;;-0.59;100.00;101245.03;5051564;28;20284;-77
2022/03/02 05:03:15;;;;;;;;;;;-0.10;96.20;;;-0.59;100.00;101247.63;5069593;28;20363;-77
2022/03/02 05:05:42;;;;;;;;;;;-0.20;96.40;;;-0.57;100.00;101250.28;5070848;28;19982;-77
2022/03/02 05:08:09;;;;;;;;;;;0.10;96.50;;;-0.50;100.00;101246.22;5070296;28;19924;-78
2022/03/02 05:10:36;;;;;;;;;;;3.00;96.80;;;-0.46;100.00;101241.19;5036939;28;19936;-78
2022/03/02 05:13:03;;;;;;;;;;;0.30;95.90;;;-0.37;100.00;101240.66;5052981;28;19928;-78
2022/03/02 05:15:30;;;;;;;;;;;0.10;95.80;;;-0.31;100.00;101238.25;5053967;28;20019;-77
2022/03/02 05:17:58;;;;;;;;;;;0.30;95.90;;;-0.28;100.00;101237.50;5069979;28;20415;-78
2022/03/02 05:20:25;;;;;;;;;;;0.30;95.90;;;-0.21;100.00;101233.41;5053552;28;19935;-78
2022/03/02 05:22:53;;;;;;;;;;;2.40;96.30;;;-0.15;99.17;101246.53;5069185;28;20027;-77
2022/03/02 05:25:20;;;;;;;;;;;0.80;95.50;;;-0.12;99.58;101240.59;5036951;28;19928;-77
2022/03/02 05:27:47;;;;;;;;;;;0.40;95.40;;;-0.11;100.00;101240.63;5069513;28;20383;-78
2022/03/02 05:30:17;;;;;;;;;;;0.50;95.50;;;-0.06;100.00;101246.88;5037394;28;19974;-77
2022/03/02 05:32:44;;;;;;;;;;;0.50;95.50;;;-0.01;99.17;101245.31;5052529;28;19931;-78
2022/03/02 05:35:11;;;;;;;;;;;0.40;95.20;;;0.08;96.02;101241.25;5069617;28;19925;-78
2022/03/02 05:37:42;;;;;;;;;;;0.60;94.90;;;0.13;96.74;101255.25;5069412;28;19936;-78
2022/03/02 05:40:16;;;;;;;;;;;2.00;95.10;;;0.19;95.76;101250.25;5069578;28;19924;-78
2022/03/02 05:42:49;;;;;;;;;;;0.50;94.70;;;0.24;97.13;101246.13;5069977;28;19932;-77
2022/03/02 05:45:16;;;;;;;;;;;0.80;94.90;;;0.28;94.80;101241.91;5036325;28;20479;-79
2022/03/02 05:47:43;;;;;;;;;;;0.80;94.50;;;0.36;92.07;101245.63;5069016;28;19936;-78
2022/03/02 05:50:11;;;;;;;;;;;2.80;94.80;;;0.41;93.59;101243.19;5069272;28;19931;-78
2022/03/02 05:52:38;;;;;;;;;;;2.00;94.50;;;0.48;91.73;101247.72;5051934;28;20588;-78
2022/03/02 05:55:06;;;;;;;;;;;0.80;94.10;;;0.50;90.23;101243.47;5052418;28;20392;-78
2022/03/02 05:57:33;;;;;;;;;;;1.00;93.90;;;0.51;91.55;101247.81;5069281;28;20602;-78
2022/03/02 06:00:00;;;;;;;;;;;1.00;94.10;;;0.54;90.95;101245.31;5068949;28;19924;-78
2022/03/02 06:02:27;;;;;;;;;;;1.20;93.90;;;0.53;92.40;101253.91;5051844;28;19939;-77
2022/03/02 06:04:54;;;;;;;;;;;1.10;94.00;;;0.54;92.23;101252.22;5068260;28;19932;-78
2022/03/02 06:07:21;;;;;;;;;;;1.10;94.00;;;0.56;92.36;101258.31;5069026;28;19933;-78
2022/03/02 06:09:49;;;;;;;;;;;1.10;93.90;;;0.52;93.09;101261.66;5050693;28;19932;-78
2022/03/02 06:12:16;;;;;;;;;;;1.10;93.80;;;0.35;95.91;101272.34;5017315;28;19928;-78
2022/03/02 06:14:44;;;;;;;;;;;1.00;94.30;;;0.39;96.08;101270.72;5049131;28;19943;-78
2022/03/02 06:17:11;;;;;;;;;;;1.10;94.20;;;0.41;94.53;101274.28;5048166;28;19924;-77
2022/03/02 06:19:40;;;;;;;;;;;0.90;94.10;;;0.39;97.32;101270.72;5049141;28;20035;-76
2022/03/02 06:22:07;;;;;;;;;;;1.20;94.50;;;0.42;94.97;101269.13;5048672;28;19944;-77
2022/03/02 06:24:34;;;;;;;;;;;1.00;94.10;;;0.43;99.12;101275.19;5048736;28;19999;-78
2022/03/02 06:27:01;;;;;;;;;;;1.10;94.40;;;0.39;100.00;101271.63;5048421;28;20015;-77
2022/03/02 06:29:28;;;;;;;;;;;1.10;95.20;;;0.46;100.00;101271.81;5049891;28;19955;-78
2022/03/02 06:31:55;;;;;;;;;;;2.50;95.40;;;0.49;100.00;101271.94;5033239;28;19929;-78
2022/03/02 06:34:22;;;;;;;;;;;2.00;95.30;;;0.53;100.00;101278.97;5021079;28;19928;-78
2022/03/02 06:36:51;;;;;;;;;;;1.10;94.90;;;0.52;100.00;101284.97;5035324;28;19983;-78
2022/03/02 06:39:22;;;;;;;;;;;1.10;95.30;;;0.56;100.00;101284.22;5033343;28;19952;-77
2022/03/02 06:42:11;;;;;;;;;;;1.10;95.10;;;0.62;100.00;101286.13;5033013;28;20020;-77
2022/03/02 06:45:11;;;;;;;;;;;1.00;95.30;;;0.68;100.00;101281.13;5051398;28;19967;-77
2022/03/02 06:47:45;;;;;;;;;;;1.00;95.10;;;0.65;100.00;101281.03;5065196;28;19925;-77
2022/03/02 06:50:12;;;;;;;;;;;1.30;95.70;;;0.65;100.00;101274.16;5037104;28;19935;-78
2022/03/02 06:52:42;;;;;;;;;;;1.30;95.70;;;0.72;100.00;101284.72;5068403;28;19932;-77
2022/03/02 06:55:13;;;;;;;;;;;1.20;95.80;;;0.76;100.00;101278.78;5051723;28;20011;-77
2022/03/02 06:57:40;;;;;;;;;;;1.40;95.80;;;0.76;100.00;101269.31;5070303;28;19924;-77
2022/03/02 07:00:14;;;;;;;;;;;1.30;96.00;;;0.81;100.00;101272.91;5053058;28;19925;-77
2022/03/02 07:02:51;;;;;;;;;;;1.50;95.90;;;0.85;100.00;101273.91;5068081;28;19963;-77
2022/03/02 07:05:19;;;;;;;;;;;1.10;95.80;;;0.89;100.00;101264.53;5070004;28;19928;-77
2022/03/02 07:07:47;;;;;;;;;;;3.50;96.50;;;0.97;100.00;101269.09;5069470;28;19938;-78
2022/03/02 07:10:15;;;;;;;;;;;1.40;95.70;;;1.03;100.00;101270.09;5069429;28;19924;-77
2022/03/02 07:12:42;;;;;;;;;;;1.40;95.60;;;1.11;100.00;101268.63;5062641;28;19935;-77
2022/03/02 07:15:10;;;;;;;;;;;1.60;95.40;;;1.20;100.00;101265.44;5073074;28;19947;-78
2022/03/02 07:17:37;;;;;;;;;;;1.60;95.40;;;1.21;100.00;101273.22;5073422;28;20026;-78
2022/03/02 07:20:07;;;;;;;;;;;1.70;95.30;;;1.32;100.00;101268.34;5058194;28;19970;-78
2022/03/02 07:22:48;;;;;;;;;;;1.70;95.10;;;1.45;99.22;101273.88;5074359;28;19929;-78
2022/03/02 07:25:33;;;;;;;;;;;2.50;95.00;;;1.56;95.39;101267.28;5060409;28;20351;-79
2022/03/02 07:28:01;;;;;;;;;;;1.80;94.30;;;1.63;95.49;101256.22;5059643;28;19925;-79
2022/03/02 07:30:28;;;;;;;;;;;2.90;94.70;;;1.73;94.31;101270.34;5075692;28;19955;-78
2022/03/02 07:32:59;;;;;;;;;;;2.00;94.30;;;1.83;92.70;101267.16;5074293;28;20638;-78
2022/03/02 07:35:29;;;;;;;;;;;2.20;94.20;;;1.97;88.90;101274.41;5060158;28;19932;-81
2022/03/02 07:37:56;;;;;;;;;;;3.40;94.10;;;2.01;89.54;101275.38;5062662;28;20401;-80
2022/03/02 07:40:24;;;;;;;;;;;2.30;93.60;;;2.12;86.92;101273.94;5043264;28;20266;-77
2022/03/02 07:42:51;;;;;;;;;;;2.30;93.10;;;2.22;86.77;101275.91;5071789;28;19924;-79
2022/03/02 07:45:19;;;;;;;;;;;2.50;93.30;;;2.28;84.82;101274.34;5037168;28;19943;-78
2022/03/02 07:47:47;;;;;;;;;;;2.70;93.10;;;2.39;83.42;101267.66;5070046;28;20381;-78
2022/03/02 07:50:16;;;;;;;;;;;2.50;92.80;;;2.48;82.50;101273.09;5052625;28;19924;-78
2022/03/02 07:52:48;;;;;;;;;;;4.20;93.00;;;2.57;81.76;101272.44;5053829;28;19929;-77
2022/03/02 07:55:17;;;;;;;;;;;2.90;92.40;;;2.63;79.81;101276.91;5049154;28;19925;-77
2022/03/02 07:57:45;;;;;;;;;;;2.90;92.10;;;2.74;78.04;101279.72;5055422;28;19996;-78
2022/03/02 08:00:13;;;;;;;;;;;4.30;92.30;;;2.79;75.87;101275.50;5050363;28;20330;-78
2022/03/02 08:02:41;;;;;;;;;;;3.10;91.50;;;2.87;73.66;101275.69;5050342;28;19973;-78
2022/03/02 08:05:09;;;;;;;;;;;3.20;91.20;;;2.90;72.83;101275.78;5039096;28;20180;-79
2022/03/02 08:07:36;;;;;;;;;;;4.00;90.90;;;3.01;72.18;101265.59;5063580;28;19928;-79
2022/03/02 08:10:05;;;;;;;;;;;3.30;90.60;;;3.09;71.47;101261.44;5032803;28;19929;-79
2022/03/02 08:12:32;;;;;;;;;;;3.40;90.30;;;3.14;70.76;101274.53;5044190;28;19974;-78
2022/03/02 08:15:00;;;;;;;;;;;3.50;90.10;;;3.27;70.25;101268.75;5067142;28;19928;-78
2022/03/02 08:17:27;;;;;;;;;;;3.60;90.10;;;3.34;68.96;101273.22;5051089;28;19940;-78
2022/03/02 08:19:54;;;;;;;;;;;5.20;90.10;;;3.41;68.09;101266.41;5064826;28;19971;-77
2022/03/02 08:22:23;;;;;;;;;;;3.80;89.00;;;3.52;66.64;101258.84;5046199;28;19928;-76
2022/03/02 08:25:11;;;;;;;;;;;4.70;88.90;;;3.62;66.14;101265.09;5047954;28;19972;-77
2022/03/02 08:27:39;;;;;;;;;;;3.90;88.10;;;3.68;65.84;101255.69;5047938;28;19925;-77
2022/03/02 08:30:08;;;;;;;;;;;3.90;87.60;;;3.76;63.92;101261.03;5018252;28;20650;-77
2022/03/02 08:32:38;;;;;;;;;;;4.00;86.70;;;3.82;62.62;101255.03;5050734;28;19975;-78
2022/03/02 08:35:06;;;;;;;;;;;4.20;85.30;;;3.88;61.11;101254.28;5034978;28;19973;-77
2022/03/02 08:37:34;;;;;;;;;;;4.20;83.70;;;3.90;60.87;101252.56;5042150;28;20526;-77
2022/03/02 08:40:03;;;;;;;;;;;4.80;83.30;;;3.94;60.55;101259.59;5054487;28;19935;-77
2022/03/02 08:42:32;;;;;;;;;;;4.30;82.70;;;4.03;61.01;101251.94;5069856;28;19934;-77
2022/03/02 08:44:59;;;;;;;;;;;4.40;83.00;;;4.07;60.95;101255.47;5069851;28;19948;-77
2022/03/02 08:47:26;;;;;;;;;;;4.40;82.90;;;4.11;60.81;101259.88;5053885;28;19929;-77
2022/03/02 08:49:56;;;;;;;;;;;4.50;82.80;;;4.16;59.09;101260.84;5065787;28;19936;-78
2022/03/02 08:52:27;;;;;;;;;;;4.60;81.30;;;4.21;58.68;101259.19;5049965;28;20023;-77
2022/03/02 08:54:55;;;;;;;;;;;5.10;81.10;;;4.25;59.05;101257.53;5049470;28;19971;-77
2022/03/02 08:57:23;;;;;;;;;;;5.10;81.10;;;4.33;58.59;101266.31;5034067;28;19972;-77
2022/03/02 08:59:54;;;;;;;;;;;5.40;80.70;;;4.26;57.84;101257.53;5051486;28;19959;-78
2022/03/02 09:02:29;;;;;;;;;;;4.60;79.30;;;4.39;57.52;101252.53;5034420;28;19929;-73
2022/03/02 09:04:59;;;;;;;;;;;4.70;78.40;;;4.50;56.74;101252.69;5050289;28;19933;-76
2022/03/02 09:07:26;;;;;;;;;;;6.30;79.50;;;4.52;57.00;101262.28;5048800;28;19936;-75
2022/03/02 09:09:54;;;;;;;;;;;5.10;78.50;;;4.59;56.31;101252.84;5033010;28;19932;-75
2022/03/02 09:12:21;;;;;;;;;;;4.90;77.80;;;4.66;55.59;101257.28;5032881;28;19952;-75
2022/03/02 09:14:49;;;;;;;;;;;4.90;76.90;;;4.71;55.71;101261.69;5050081;28;19959;-75
2022/03/02 09:17:18;;;;;;;;;;;4.90;76.40;;;4.74;55.32;101266.94;5033232;28;20006;-75
2022/03/02 09:19:46;;;;;;;;;;;7.10;77.60;;;4.80;54.91;101257.50;5071348;28;19928;-74
2022/03/02 09:22:21;;;;;;;;;;;5.00;75.90;;;4.83;54.59;101262.75;5053049;28;19972;-75
2022/03/02 09:24:48;;;;;;;;;;;5.40;75.30;;;4.88;54.60;101256.69;5032453;28;20019;-75
2022/03/02 09:27:17;;;;;;;;;;;5.20;75.10;;;4.97;54.42;101254.25;5049123;28;19925;-75
2022/03/02 09:29:47;;;;;;;;;;;5.10;74.40;;;4.99;54.58;101269.88;5033222;28;19971;-77
2022/03/02 09:32:15;;;;;;;;;;;5.30;75.00;;;4.98;55.33;101269.03;5051024;28;20582;-76
2022/03/02 09:34:48;;;;;;;;;;;5.30;75.20;;;5.07;54.66;101252.63;5034767;28;19964;-79
2022/03/02 09:37:16;;;;;;;;;;;5.30;74.60;;;5.13;53.53;101247.47;5052167;28;19928;-79
2022/03/02 09:39:48;;;;;;;;;;;5.30;74.40;;;5.23;53.82;101245.88;5048900;28;20035;-76
2022/03/02 09:42:19;;;;;;;;;;;5.50;73.90;;;5.28;53.17;101238.97;5032717;28;19932;-76
2022/03/02 09:44:51;;;;;;;;;;;5.50;72.80;;;5.36;53.17;101234.69;5032531;28;19968;-76
2022/03/02 09:47:21;;;;;;;;;;;5.60;72.10;;;5.43;52.90;101237.41;5063077;28;20356;-75
2022/03/02 09:49:53;;;;;;;;;;;6.10;72.40;;;5.56;52.80;101241.91;5069137;28;19995;-75
2022/03/02 09:52:21;;;;;;;;;;;6.40;72.90;;;5.65;52.86;101241.13;5068309;28;19974;-75
2022/03/02 09:54:53;;;;;;;;;;;5.90;72.30;;;5.78;52.43;101242.09;5064574;28;19932;-75
2022/03/02 09:57:21;;;;;;;;;;;5.90;71.80;;;5.91;52.63;101246.59;5064982;28;19924;-75
2022/03/02 09:59:51;;;;;;;;;;;6.00;71.60;;;5.89;51.58;101253.53;5052229;28;19974;-75
2022/03/02 10:02:40;;;;;;;;;;;6.20;69.80;;;5.95;51.17;101250.13;5068210;28;19982;-75
2022/03/02 10:05:15;;;;;;;;;;;6.70;68.80;;;6.09;51.60;101251.16;5066969;28;19936;-76
2022/03/02 10:07:52;;;;;;;;;;;6.20;69.40;;;6.16;51.37;101246.81;5064076;28;19959;-75
2022/03/02 10:10:23;;;;;;;;;;;6.40;69.40;;;6.22;51.39;101249.50;5070823;28;20023;-76
2022/03/02 10:12:53;;;;;;;;;;;7.40;69.50;;;6.32;50.67;101239.09;5069246;28;19924;-76
2022/03/02 10:15:20;;;;;;;;;;;6.50;68.30;;;6.48;49.96;101240.09;5068082;28;19924;-76
2022/03/02 10:17:56;;;;;;;;;;;6.60;66.90;;;6.50;49.41;101243.59;5053213;28;19932;-76
2022/03/02 10:20:26;;;;;;;;;;;6.60;66.10;;;6.59;49.36;101242.78;5052488;28;19989;-75
2022/03/02 10:23:02;;;;;;;;;;;6.70;65.10;;;6.66;47.85;101239.38;5051973;28;19979;-76
2022/03/02 10:25:47;;;;;;;;;;;6.90;63.50;;;6.74;48.53;101232.41;5069535;28;19978;-75
2022/03/02 10:28:40;;;;;;;;;;;6.90;63.30;;;6.86;48.32;101225.53;5060501;28;19971;-75
2022/03/02 10:31:39;;;;;;;;;;;6.90;63.30;;;6.94;47.89;101232.53;5056290;28;19932;-75
2022/03/02 10:34:26;;;;;;;;;;;7.00;63.50;;;7.07;47.89;101229.97;5068035;28;20401;-75
2022/03/02 10:36:58;;;;;;;;;;;7.20;62.90;;;7.28;48.26;101231.81;5068111;28;19928;-75
2022/03/02 10:39:54;;;;;;;;;;;7.30;63.50;;;7.41;46.84;101217.00;5062122;28;19924;-75
2022/03/02 10:42:28;;;;;;;;;;;7.40;61.30;;;7.36;45.85;101217.00;5061786;28;20041;-75
2022/03/02 10:45:04;;;;;;;;;;;7.50;59.70;;;7.46;46.66;101222.25;5061383;28;20302;-77
2022/03/02 10:47:34;;;;;;;;;;;7.60;60.40;;;7.58;46.36;101216.19;5039755;28;19928;-78
2022/03/02 10:50:04;;;;;;;;;;;7.70;59.80;;;7.68;46.43;101228.44;5028777;28;19990;-77
2022/03/02 10:52:36;;;;;;;;;;;7.90;59.40;;;7.83;45.36;101217.09;5020775;28;19924;-77
2022/03/02 10:55:09;;;;;;;;;;;7.90;58.30;;;7.95;44.63;101206.63;5023442;28;19946;-77
2022/03/02 10:57:37;;;;;;;;;;;6.90;56.60;;;8.14;45.17;101211.00;5038688;28;20077;-78
2022/03/02 11:00:13;;;;;;;;;;;8.20;58.00;;;8.25;44.58;101213.59;5052710;28;20701;-77
2022/03/02 11:02:42;;;;;;;;;;;8.30;57.60;;;8.03;43.62;101206.63;5036441;28;19929;-77
2022/03/02 11:05:12;;;;;;;;;;;8.40;55.10;;;8.15;44.57;101204.88;5054290;28;20019;-78
2022/03/02 11:07:45;;;;;;;;;;;8.40;55.90;;;8.07;43.17;101205.72;5040685;28;19924;-79
2022/03/02 11:10:16;;;;;;;;;;;8.40;54.40;;;8.18;44.02;101205.72;5055670;28;20448;-78
2022/03/02 11:12:44;;;;;;;;;;;8.30;55.10;;;8.43;43.52;101199.56;5034359;28;19929;-79
2022/03/02 11:15:13;;;;;;;;;;;8.50;55.10;;;8.48;43.08;101197.84;5034988;28;20345;-78
2022/03/02 11:17:58;;;;;;;;;;;8.60;54.40;;;8.54;43.00;101205.72;5035162;28;19956;-78
2022/03/02 11:20:30;;;;;;;;;;;8.60;53.90;;;8.60;43.73;101202.22;5068649;28;19925;-76
2022/03/02 11:23:00;;;;;;;;;;;8.70;54.80;;;8.79;43.34;101198.66;5066444;28;19928;-77
2022/03/02 11:25:48;;;;;;;;;;;8.80;54.60;;;8.67;43.13;101195.19;5069804;28;19978;-78
2022/03/02 11:28:18;;;;;;;;;;;8.80;53.80;;;8.76;43.28;101187.31;5050448;28;19928;-77
2022/03/02 11:30:55;;;;;;;;;;;8.90;54.20;;;8.65;42.60;101193.44;5067497;28;19925;-78